Accueil
METAR-TAF:

METAR-TAF

Aéroports :

Maastricht Aix-la-Chapelle, Pays-Bas

Aéroport de Maastricht-Aix-la-Chapelle

latitude: 50-55N, longitude: 005-47E, altitude: 114 m

Observation

Le bulletin a été fait il y a 23 minutes, à 16:25 UTC
Vent 5 kt de nord-est, variant entre nord/nord-est et est
Température 22°C
Humidité 57%
Pression 1018 hPa
Visibilité 10 km ou plus

METAR: EHBK 221625Z AUTO 05005KT 020V080 9999 NSC 22/13 Q1018 NOSIG

Heure: 18:48 (16:48 UTC)

Prévision

Le bulletin a été fait il y a 5 heures et 51 minutes, à 10:57 UTC
Prévision valable du 22 à 12 UTC au 23 à 18 UTC
Vent 5 kt de est
Visibilité 10 km ou plus
Nuages épars à une hauteur de 4500 ft

TAF: EHBK 221057Z 2212/2318 08005KT 9999 SCT045

Observations et prévisions météorologiques de plus de 4000 aéroports (messages METAR et TAF).

Les stations disponibles sont représentées par des disques jaunes et rouges sur la carte.

Passer la souris dessus pour voir le nom de la station.

Cliquer dessus pour voir les observations et prévisions météorologiques.

Pour changer de carte: cliquez sur les boutons verts avec une croix noire pour zoomer, sur le bouton vert avec un tiret pour effectuer un zoom arrière, ou sur les flèches vertes pour les cartes adjacentes.


METAR-TAF: